sensor_id;sensor_type;location;lat;lon;timestamp;pressure;altitude;pressure_sealevel;temperature;humidity
76086;BME280;64791;0.000;0.000;2024-01-25T00:01:09;94300.03;;;7.17;50.24
76086;BME280;64791;0.000;0.000;2024-01-25T00:03:35;94307.97;;;7.21;49.95
76086;BME280;64791;0.000;0.000;2024-01-25T00:06:00;94313.44;;;7.26;50.22
76086;BME280;64791;0.000;0.000;2024-01-25T00:08:26;94316.19;;;7.26;50.01
76086;BME280;64791;0.000;0.000;2024-01-25T00:10:52;94317.97;;;7.18;49.96
76086;BME280;64791;0.000;0.000;2024-01-25T00:13:18;94334.03;;;7.09;50.34
76086;BME280;64791;0.000;0.000;2024-01-25T00:15:44;94315.94;;;7.00;50.29
76086;BME280;64791;0.000;0.000;2024-01-25T00:18:09;94296.09;;;6.89;50.73
76086;BME280;64791;0.000;0.000;2024-01-25T00:20:38;94261.09;;;6.76;50.90
76086;BME280;64791;0.000;0.000;2024-01-25T00:23:04;94237.06;;;6.63;51.31
76086;BME280;64791;0.000;0.000;2024-01-25T00:25:30;94226.19;;;6.52;51.64
76086;BME280;64791;0.000;0.000;2024-01-25T00:27:55;94216.84;;;6.42;51.79
76086;BME280;64791;0.000;0.000;2024-01-25T00:30:21;94214.66;;;6.35;51.70
76086;BME280;64791;0.000;0.000;2024-01-25T00:32:48;94210.56;;;6.23;51.79
76086;BME280;64791;0.000;0.000;2024-01-25T00:35:14;94209.59;;;6.15;52.26
76086;BME280;64791;0.000;0.000;2024-01-25T00:37:40;94201.97;;;6.08;52.32
76086;BME280;64791;0.000;0.000;2024-01-25T00:40:06;94190.59;;;5.98;52.45
76086;BME280;64791;0.000;0.000;2024-01-25T00:42:32;94202.09;;;5.91;52.57
76086;BME280;64791;0.000;0.000;2024-01-25T00:45:01;94203.41;;;5.85;52.74
76086;BME280;64791;0.000;0.000;2024-01-25T00:47:27;94181.09;;;5.75;52.88
76086;BME280;64791;0.000;0.000;2024-01-25T00:49:52;94176.91;;;5.69;53.16
76086;BME280;64791;0.000;0.000;2024-01-25T00:52:18;94185.66;;;5.62;53.10
76086;BME280;64791;0.000;0.000;2024-01-25T00:54:44;94172.25;;;5.58;53.24
76086;BME280;64791;0.000;0.000;2024-01-25T00:57:10;94186.94;;;5.55;53.41
76086;BME280;64791;0.000;0.000;2024-01-25T00:59:35;94184.47;;;5.52;53.48
76086;BME280;64791;0.000;0.000;2024-01-25T01:02:01;94197.19;;;5.49;53.90
76086;BME280;64791;0.000;0.000;2024-01-25T01:04:29;94205.44;;;5.44;54.08
76086;BME280;64791;0.000;0.000;2024-01-25T01:06:55;94214.63;;;5.41;54.08
76086;BME280;64791;0.000;0.000;2024-01-25T01:09:21;94226.34;;;5.36;54.41
76086;BME280;64791;0.000;0.000;2024-01-25T01:11:46;94236.09;;;5.31;54.30
76086;BME280;64791;0.000;0.000;2024-01-25T01:14:12;94237.59;;;5.27;54.46
76086;BME280;64791;0.000;0.000;2024-01-25T01:16:38;94240.34;;;5.21;54.54
76086;BME280;64791;0.000;0.000;2024-01-25T01:19:04;94231.16;;;5.18;54.84
76086;BME280;64791;0.000;0.000;2024-01-25T01:21:33;94218.25;;;5.13;55.12
76086;BME280;64791;0.000;0.000;2024-01-25T01:23:59;94222.50;;;5.09;54.79
76086;BME280;64791;0.000;0.000;2024-01-25T01:26:25;94212.34;;;5.04;55.00
76086;BME280;64791;0.000;0.000;2024-01-25T01:28:51;94202.91;;;4.99;55.05
76086;BME280;64791;0.000;0.000;2024-01-25T01:31:17;94200.22;;;4.94;55.05
76086;BME280;64791;0.000;0.000;2024-01-25T01:33:42;94192.28;;;4.90;55.12
76086;BME280;64791;0.000;0.000;2024-01-25T01:36:08;94193.03;;;4.85;55.41
76086;BME280;64791;0.000;0.000;2024-01-25T01:38:34;94163.22;;;4.82;55.59
76086;BME280;64791;0.000;0.000;2024-01-25T01:40:59;94146.34;;;4.78;55.37
76086;BME280;64791;0.000;0.000;2024-01-25T01:43:25;94140.63;;;4.76;55.59
76086;BME280;64791;0.000;0.000;2024-01-25T01:45:50;94133.47;;;4.73;55.58
76086;BME280;64791;0.000;0.000;2024-01-25T01:48:16;94135.72;;;4.69;55.44
76086;BME280;64791;0.000;0.000;2024-01-25T01:50:42;94135.25;;;4.65;55.83
76086;BME280;64791;0.000;0.000;2024-01-25T01:53:09;94134.25;;;4.62;55.77
76086;BME280;64791;0.000;0.000;2024-01-25T01:55:35;94155.13;;;4.60;55.95
76086;BME280;64791;0.000;0.000;2024-01-25T01:58:01;94136.28;;;4.56;56.16
76086;BME280;64791;0.000;0.000;2024-01-25T02:00:29;94137.50;;;4.55;56.29
76086;BME280;64791;0.000;0.000;2024-01-25T02:02:54;94122.63;;;4.51;56.37
76086;BME280;64791;0.000;0.000;2024-01-25T02:05:20;94120.66;;;4.45;56.40
76086;BME280;64791;0.000;0.000;2024-01-25T02:07:46;94116.97;;;4.43;56.48
76086;BME280;64791;0.000;0.000;2024-01-25T02:10:12;94125.41;;;4.39;56.60
76086;BME280;64791;0.000;0.000;2024-01-25T02:12:38;94133.84;;;4.36;56.70
76086;BME280;64791;0.000;0.000;2024-01-25T02:15:03;94144.03;;;4.35;56.79
76086;BME280;64791;0.000;0.000;2024-01-25T02:17:30;94131.63;;;4.34;56.72
76086;BME280;64791;0.000;0.000;2024-01-25T02:19:55;94119.22;;;4.33;56.78
76086;BME280;64791;0.000;0.000;2024-01-25T02:22:21;94125.44;;;4.28;56.72
76086;BME280;64791;0.000;0.000;2024-01-25T02:24:47;94133.38;;;4.26;56.97
76086;BME280;64791;0.000;0.000;2024-01-25T02:27:12;94142.59;;;4.23;57.08
76086;BME280;64791;0.000;0.000;2024-01-25T02:29:38;94148.28;;;4.20;56.97
76086;BME280;64791;0.000;0.000;2024-01-25T02:32:03;94151.28;;;4.16;56.97
76086;BME280;64791;0.000;0.000;2024-01-25T02:34:29;94150.28;;;4.14;57.23
76086;BME280;64791;0.000;0.000;2024-01-25T02:36:55;94137.91;;;4.13;57.32
76086;BME280;64791;0.000;0.000;2024-01-25T02:39:21;94127.47;;;4.11;57.28
76086;BME280;64791;0.000;0.000;2024-01-25T02:41:47;94114.84;;;4.08;57.26
76086;BME280;64791;0.000;0.000;2024-01-25T02:44:12;94118.78;;;4.07;56.90
76086;BME280;64791;0.000;0.000;2024-01-25T02:46:38;94118.78;;;4.07;57.39
76086;BME280;64791;0.000;0.000;2024-01-25T02:49:04;94111.13;;;4.00;57.39
76086;BME280;64791;0.000;0.000;2024-01-25T02:51:30;94114.06;;;4.13;57.16
76086;BME280;64791;0.000;0.000;2024-01-25T02:53:56;94102.09;;;4.33;56.80
76086;BME280;64791;0.000;0.000;2024-01-25T02:56:22;94104.69;;;4.61;56.84
76086;BME280;64791;0.000;0.000;2024-01-25T02:58:47;94108.06;;;4.94;56.43
76086;BME280;64791;0.000;0.000;2024-01-25T03:01:13;94095.97;;;5.19;55.92
76086;BME280;64791;0.000;0.000;2024-01-25T03:03:38;94096.34;;;5.35;55.50
76086;BME280;64791;0.000;0.000;2024-01-25T03:06:05;94087.50;;;5.53;54.95
76086;BME280;64791;0.000;0.000;2024-01-25T03:08:31;94085.09;;;5.73;54.44
76086;BME280;64791;0.000;0.000;2024-01-25T03:10:57;94090.38;;;5.90;54.47
76086;BME280;64791;0.000;0.000;2024-01-25T03:13:23;94103.97;;;6.01;54.21
76086;BME280;64791;0.000;0.000;2024-01-25T03:15:48;94131.53;;;6.09;53.92
76086;BME280;64791;0.000;0.000;2024-01-25T03:18:14;94130.72;;;6.14;53.80
76086;BME280;64791;0.000;0.000;2024-01-25T03:20:40;94130.47;;;6.17;54.04
76086;BME280;64791;0.000;0.000;2024-01-25T03:23:06;94122.16;;;6.23;53.64
76086;BME280;64791;0.000;0.000;2024-01-25T03:25:32;94120.19;;;6.23;53.63
76086;BME280;64791;0.000;0.000;2024-01-25T03:27:57;94117.16;;;6.27;53.52
76086;BME280;64791;0.000;0.000;2024-01-25T03:30:23;94115.84;;;6.33;53.80
76086;BME280;64791;0.000;0.000;2024-01-25T03:32:49;94114.22;;;6.43;53.48
76086;BME280;64791;0.000;0.000;2024-01-25T03:35:15;94104.47;;;6.48;53.04
76086;BME280;64791;0.000;0.000;2024-01-25T03:37:41;94090.19;;;6.55;53.46
76086;BME280;64791;0.000;0.000;2024-01-25T03:40:07;94101.75;;;6.66;52.86
76086;BME280;64791;0.000;0.000;2024-01-25T03:42:33;94101.03;;;6.85;52.64
76086;BME280;64791;0.000;0.000;2024-01-25T03:44:59;94104.66;;;6.93;52.65
76086;BME280;64791;0.000;0.000;2024-01-25T03:47:25;94087.97;;;6.91;52.50
76086;BME280;64791;0.000;0.000;2024-01-25T03:49:50;94077.66;;;6.97;52.41
76086;BME280;64791;0.000;0.000;2024-01-25T03:52:16;94068.09;;;7.03;52.23
76086;BME280;64791;0.000;0.000;2024-01-25T03:54:41;94067.50;;;7.10;52.19
76086;BME280;64791;0.000;0.000;2024-01-25T03:57:07;94064.41;;;7.19;52.16
76086;BME280;64791;0.000;0.000;2024-01-25T03:59:32;94077.28;;;7.24;51.76
76086;BME280;64791;0.000;0.000;2024-01-25T04:01:58;94060.75;;;7.30;52.09
76086;BME280;64791;0.000;0.000;2024-01-25T04:04:24;94044.75;;;7.34;51.89
76086;BME280;64791;0.000;0.000;2024-01-25T04:06:49;94039.91;;;7.40;51.85
76086;BME280;64791;0.000;0.000;2024-01-25T04:09:15;94058.72;;;7.49;52.06
76086;BME280;64791;0.000;0.000;2024-01-25T04:11:41;94055.00;;;7.46;52.29
76086;BME280;64791;0.000;0.000;2024-01-25T04:14:07;94051.09;;;7.42;51.75
76086;BME280;64791;0.000;0.000;2024-01-25T04:16:33;94047.81;;;7.30;52.08
76086;BME280;64791;0.000;0.000;2024-01-25T04:18:59;94056.91;;;7.20;51.75
76086;BME280;64791;0.000;0.000;2024-01-25T04:21:26;94048.84;;;7.09;52.39
76086;BME280;64791;0.000;0.000;2024-01-25T04:23:51;94061.97;;;6.97;52.72
76086;BME280;64791;0.000;0.000;2024-01-25T04:26:17;94050.44;;;6.86;52.80
76086;BME280;64791;0.000;0.000;2024-01-25T04:28:43;94063.75;;;6.76;53.30
76086;BME280;64791;0.000;0.000;2024-01-25T04:31:09;94070.88;;;6.66;53.56
76086;BME280;64791;0.000;0.000;2024-01-25T04:33:35;94061.75;;;6.58;53.64
76086;BME280;64791;0.000;0.000;2024-01-25T04:36:00;94067.06;;;6.50;54.14
76086;BME280;64791;0.000;0.000;2024-01-25T04:38:26;94062.19;;;6.43;54.11
76086;BME280;64791;0.000;0.000;2024-01-25T04:40:51;94045.88;;;6.32;54.35
76086;BME280;64791;0.000;0.000;2024-01-25T04:43:17;94046.75;;;6.22;54.47
76086;BME280;64791;0.000;0.000;2024-01-25T04:45:42;94055.09;;;6.11;54.78
76086;BME280;64791;0.000;0.000;2024-01-25T04:48:08;94056.91;;;6.03;54.89
76086;BME280;64791;0.000;0.000;2024-01-25T04:50:34;94067.72;;;5.95;55.14
76086;BME280;64791;0.000;0.000;2024-01-25T04:53:02;94088.47;;;5.85;55.18
76086;BME280;64791;0.000;0.000;2024-01-25T04:55:28;94086.28;;;5.78;55.33
76086;BME280;64791;0.000;0.000;2024-01-25T04:57:54;94091.06;;;5.72;55.71
76086;BME280;64791;0.000;0.000;2024-01-25T05:00:21;94098.34;;;5.64;55.43
76086;BME280;64791;0.000;0.000;2024-01-25T05:02:47;94103.13;;;5.58;55.71
76086;BME280;64791;0.000;0.000;2024-01-25T05:05:13;94100.44;;;5.52;55.69
76086;BME280;64791;0.000;0.000;2024-01-25T05:07:38;94088.28;;;5.48;55.74
76086;BME280;64791;0.000;0.000;2024-01-25T05:10:04;94101.75;;;5.40;55.84
76086;BME280;64791;0.000;0.000;2024-01-25T05:12:30;94112.97;;;5.37;55.71
76086;BME280;64791;0.000;0.000;2024-01-25T05:14:56;94117.25;;;5.32;55.99
76086;BME280;64791;0.000;0.000;2024-01-25T05:17:22;94110.31;;;5.31;55.93
76086;BME280;64791;0.000;0.000;2024-01-25T05:19:47;94123.47;;;5.27;55.87
76086;BME280;64791;0.000;0.000;2024-01-25T05:22:12;94122.53;;;5.19;56.10
76086;BME280;64791;0.000;0.000;2024-01-25T05:24:38;94145.22;;;5.14;56.12
76086;BME280;64791;0.000;0.000;2024-01-25T05:27:04;94144.47;;;5.13;56.28
76086;BME280;64791;0.000;0.000;2024-01-25T05:29:29;94155.66;;;5.10;56.26
76086;BME280;64791;0.000;0.000;2024-01-25T05:31:55;94158.16;;;5.08;56.45
76086;BME280;64791;0.000;0.000;2024-01-25T05:34:21;94158.69;;;5.01;56.52
76086;BME280;64791;0.000;0.000;2024-01-25T05:36:47;94146.53;;;4.96;56.35
76086;BME280;64791;0.000;0.000;2024-01-25T05:39:13;94142.59;;;4.92;56.70
76086;BME280;64791;0.000;0.000;2024-01-25T05:41:39;94155.78;;;4.88;56.80
76086;BME280;64791;0.000;0.000;2024-01-25T05:44:05;94161.22;;;4.82;56.73
76086;BME280;64791;0.000;0.000;2024-01-25T05:46:31;94162.72;;;4.78;56.74
76086;BME280;64791;0.000;0.000;2024-01-25T05:48:56;94162.72;;;4.78;56.81
76086;BME280;64791;0.000;0.000;2024-01-25T05:51:22;94176.66;;;4.74;57.04
76086;BME280;64791;0.000;0.000;2024-01-25T05:53:48;94175.94;;;4.68;56.93
76086;BME280;64791;0.000;0.000;2024-01-25T05:56:13;94174.47;;;4.62;57.07
76086;BME280;64791;0.000;0.000;2024-01-25T05:58:39;94190.16;;;4.56;57.30
76086;BME280;64791;0.000;0.000;2024-01-25T06:01:04;94193.38;;;4.49;57.29
76086;BME280;64791;0.000;0.000;2024-01-25T06:03:30;94187.19;;;4.48;57.23
76086;BME280;64791;0.000;0.000;2024-01-25T06:05:55;94181.22;;;4.44;57.43
76086;BME280;64791;0.000;0.000;2024-01-25T06:08:21;94182.50;;;4.43;57.42
76086;BME280;64791;0.000;0.000;2024-01-25T06:10:47;94182.50;;;4.43;57.39
76086;BME280;64791;0.000;0.000;2024-01-25T06:13:13;94180.75;;;4.40;57.35
76086;BME280;64791;0.000;0.000;2024-01-25T06:15:39;94179.00;;;4.37;57.61
76086;BME280;64791;0.000;0.000;2024-01-25T06:18:05;94186.47;;;4.36;57.77
76086;BME280;64791;0.000;0.000;2024-01-25T06:20:30;94181.50;;;4.35;57.68
76086;BME280;64791;0.000;0.000;2024-01-25T06:22:56;94175.78;;;4.33;57.55
76086;BME280;64791;0.000;0.000;2024-01-25T06:25:22;94176.31;;;4.31;57.81
76086;BME280;64791;0.000;0.000;2024-01-25T06:27:48;94176.53;;;4.33;57.72
76086;BME280;64791;0.000;0.000;2024-01-25T06:30:14;94177.81;;;4.32;57.75
76086;BME280;64791;0.000;0.000;2024-01-25T06:32:40;94177.53;;;4.36;57.74
76086;BME280;64791;0.000;0.000;2024-01-25T06:35:06;94178.03;;;4.34;57.39
76086;BME280;64791;0.000;0.000;2024-01-25T06:37:32;94171.34;;;4.30;56.91
76086;BME280;64791;0.000;0.000;2024-01-25T06:39:57;94171.59;;;4.32;57.25
76086;BME280;64791;0.000;0.000;2024-01-25T06:42:23;94169.63;;;4.32;57.37
76086;BME280;64791;0.000;0.000;2024-01-25T06:44:49;94179.50;;;4.35;57.20
76086;BME280;64791;0.000;0.000;2024-01-25T06:47:15;94163.38;;;4.37;57.29
76086;BME280;64791;0.000;0.000;2024-01-25T06:49:40;94168.59;;;4.41;57.30
76086;BME280;64791;0.000;0.000;2024-01-25T06:52:06;94160.88;;;4.39;57.03
76086;BME280;64791;0.000;0.000;2024-01-25T06:54:31;94167.09;;;4.40;57.18
76086;BME280;64791;0.000;0.000;2024-01-25T06:56:57;94181.97;;;4.44;57.29
76086;BME280;64791;0.000;0.000;2024-01-25T06:59:23;94186.69;;;4.50;57.42
76086;BME280;64791;0.000;0.000;2024-01-25T07:01:50;94194.38;;;4.51;57.13
76086;BME280;64791;0.000;0.000;2024-01-25T07:04:16;94189.63;;;4.57;57.27
76086;BME280;64791;0.000;0.000;2024-01-25T07:06:41;94196.31;;;4.62;57.14
76086;BME280;64791;0.000;0.000;2024-01-25T07:09:07;94197.28;;;4.70;57.17
76086;BME280;64791;0.000;0.000;2024-01-25T07:11:34;94188.06;;;4.78;57.50
76086;BME280;64791;0.000;0.000;2024-01-25T07:13:59;94191.78;;;4.81;57.45
76086;BME280;64791;0.000;0.000;2024-01-25T07:16:25;94192.53;;;4.87;57.44
76086;BME280;64791;0.000;0.000;2024-01-25T07:18:51;94200.44;;;4.96;57.22
76086;BME280;64791;0.000;0.000;2024-01-25T07:21:17;94199.19;;;5.02;57.28
76086;BME280;64791;0.000;0.000;2024-01-25T07:23:43;94190.94;;;5.13;56.72
76086;BME280;64791;0.000;0.000;2024-01-25T07:26:08;94191.88;;;5.22;56.83
76086;BME280;64791;0.000;0.000;2024-01-25T07:28:34;94186.13;;;5.31;56.67
76086;BME280;64791;0.000;0.000;2024-01-25T07:30:59;94196.53;;;5.38;56.50
76086;BME280;64791;0.000;0.000;2024-01-25T07:33:25;94209.84;;;5.52;56.61
76086;BME280;64791;0.000;0.000;2024-01-25T07:35:51;94182.44;;;5.58;56.34
76086;BME280;64791;0.000;0.000;2024-01-25T07:38:17;94206.53;;;5.65;56.37
76086;BME280;64791;0.000;0.000;2024-01-25T07:40:42;94208.22;;;5.68;56.43
76086;BME280;64791;0.000;0.000;2024-01-25T07:43:08;94203.75;;;5.70;56.19
76086;BME280;64791;0.000;0.000;2024-01-25T07:45:34;94199.00;;;5.76;56.08
76086;BME280;64791;0.000;0.000;2024-01-25T07:48:00;94191.72;;;5.84;56.16
76086;BME280;64791;0.000;0.000;2024-01-25T07:50:26;94200.84;;;5.92;56.05
76086;BME280;64791;0.000;0.000;2024-01-25T07:52:52;94199.03;;;6.01;55.67
76086;BME280;64791;0.000;0.000;2024-01-25T07:55:18;94203.44;;;6.09;55.93
76086;BME280;64791;0.000;0.000;2024-01-25T07:57:44;94209.13;;;6.17;55.54
76086;BME280;64791;0.000;0.000;2024-01-25T08:00:10;94215.22;;;6.28;55.45
76086;BME280;64791;0.000;0.000;2024-01-25T08:02:36;94222.88;;;6.35;54.94
76086;BME280;64791;0.000;0.000;2024-01-25T08:05:04;94212.59;;;6.41;55.30
76086;BME280;64791;0.000;0.000;2024-01-25T08:07:31;94211.75;;;6.52;54.98
76086;BME280;64791;0.000;0.000;2024-01-25T08:09:58;94206.38;;;6.65;54.30
76086;BME280;64791;0.000;0.000;2024-01-25T08:12:24;94201.25;;;6.80;54.18
76086;BME280;64791;0.000;0.000;2024-01-25T08:14:50;94203.63;;;6.89;54.04
76086;BME280;64791;0.000;0.000;2024-01-25T08:17:15;94201.75;;;7.03;54.13
76086;BME280;64791;0.000;0.000;2024-01-25T08:19:41;94210.34;;;7.12;53.54
76086;BME280;64791;0.000;0.000;2024-01-25T08:22:07;94198.22;;;7.26;53.64
76086;BME280;64791;0.000;0.000;2024-01-25T08:24:33;94194.06;;;7.38;52.92
76086;BME280;64791;0.000;0.000;2024-01-25T08:26:59;94201.63;;;7.51;53.15
76086;BME280;64791;0.000;0.000;2024-01-25T08:29:24;94203.78;;;7.58;52.62
76086;BME280;64791;0.000;0.000;2024-01-25T08:31:50;94204.66;;;7.66;52.92
76086;BME280;64791;0.000;0.000;2024-01-25T08:34:16;94207.25;;;7.77;52.73
76086;BME280;64791;0.000;0.000;2024-01-25T08:36:42;94201.59;;;7.88;52.46
76086;BME280;64791;0.000;0.000;2024-01-25T08:39:08;94204.38;;;8.01;51.96
76086;BME280;64791;0.000;0.000;2024-01-25T08:41:34;94205.34;;;8.17;52.07
76086;BME280;64791;0.000;0.000;2024-01-25T08:44:00;94209.00;;;8.25;51.29
76086;BME280;64791;0.000;0.000;2024-01-25T08:46:26;94209.97;;;8.27;51.46
76086;BME280;64791;0.000;0.000;2024-01-25T08:48:51;94202.34;;;8.34;51.70
76086;BME280;64791;0.000;0.000;2024-01-25T08:51:17;94208.69;;;8.42;51.35
76086;BME280;64791;0.000;0.000;2024-01-25T08:53:43;94210.50;;;8.52;51.12
76086;BME280;64791;0.000;0.000;2024-01-25T08:56:08;94211.56;;;8.62;50.84
76086;BME280;64791;0.000;0.000;2024-01-25T08:58:34;94219.63;;;8.73;50.63
76086;BME280;64791;0.000;0.000;2024-01-25T09:01:00;94207.88;;;8.86;50.52
76086;BME280;64791;0.000;0.000;2024-01-25T09:03:26;94202.94;;;8.97;50.51
76086;BME280;64791;0.000;0.000;2024-01-25T09:05:52;94207.91;;;9.12;50.44
76086;BME280;64791;0.000;0.000;2024-01-25T09:08:17;94204.50;;;9.32;49.59
76086;BME280;64791;0.000;0.000;2024-01-25T09:10:43;94207.75;;;9.44;49.45
76086;BME280;64791;0.000;0.000;2024-01-25T09:13:10;94200.22;;;9.57;49.48
76086;BME280;64791;0.000;0.000;2024-01-25T09:15:35;94211.53;;;9.67;49.39
76086;BME280;64791;0.000;0.000;2024-01-25T09:18:02;94210.13;;;9.73;49.07
76086;BME280;64791;0.000;0.000;2024-01-25T09:20:27;94206.38;;;9.84;48.49
76086;BME280;64791;0.000;0.000;2024-01-25T09:22:53;94204.72;;;10.22;47.91
76086;BME280;64791;0.000;0.000;2024-01-25T09:25:20;94204.25;;;10.52;48.00
76086;BME280;64791;0.000;0.000;2024-01-25T09:27:46;94202.63;;;10.77;47.43
76086;BME280;64791;0.000;0.000;2024-01-25T09:30:12;94202.97;;;11.02;47.17
76086;BME280;64791;0.000;0.000;2024-01-25T09:32:38;94204.00;;;11.19;47.20
76086;BME280;64791;0.000;0.000;2024-01-25T09:35:03;94199.63;;;11.31;46.42
76086;BME280;64791;0.000;0.000;2024-01-25T09:37:29;94198.19;;;11.46;46.35
76086;BME280;64791;0.000;0.000;2024-01-25T09:39:54;94179.13;;;11.63;46.42
76086;BME280;64791;0.000;0.000;2024-01-25T09:42:20;94171.44;;;11.76;45.92
76086;BME280;64791;0.000;0.000;2024-01-25T09:44:45;94171.69;;;12.01;46.02
76086;BME280;64791;0.000;0.000;2024-01-25T09:47:11;94184.09;;;12.38;45.75
76086;BME280;64791;0.000;0.000;2024-01-25T09:49:38;94170.63;;;12.72;45.26
76086;BME280;64791;0.000;0.000;2024-01-25T09:52:04;94157.47;;;12.88;44.73
76086;BME280;64791;0.000;0.000;2024-01-25T09:54:33;94150.09;;;12.90;44.53
76086;BME280;64791;0.000;0.000;2024-01-25T09:57:02;94147.16;;;12.96;44.74
76086;BME280;64791;0.000;0.000;2024-01-25T09:59:29;94132.16;;;13.06;44.37
76086;BME280;64791;0.000;0.000;2024-01-25T10:01:55;94139.16;;;13.15;44.30
76086;BME280;64791;0.000;0.000;2024-01-25T10:04:21;94141.16;;;13.22;44.21
76086;BME280;64791;0.000;0.000;2024-01-25T10:06:49;94136.53;;;13.24;43.93
76086;BME280;64791;0.000;0.000;2024-01-25T10:09:15;94129.69;;;13.25;43.99
76086;BME280;64791;0.000;0.000;2024-01-25T10:11:41;94126.94;;;13.25;44.09
76086;BME280;64791;0.000;0.000;2024-01-25T10:14:07;94123.97;;;13.31;43.87
76086;BME280;64791;0.000;0.000;2024-01-25T10:16:33;94113.41;;;13.37;43.50
76086;BME280;64791;0.000;0.000;2024-01-25T10:19:00;94103.78;;;13.45;43.55
76086;BME280;64791;0.000;0.000;2024-01-25T10:21:27;94095.19;;;13.58;43.34
76086;BME280;64791;0.000;0.000;2024-01-25T10:23:54;94088.16;;;13.65;43.53
76086;BME280;64791;0.000;0.000;2024-01-25T10:26:26;94089.22;;;13.70;43.23
76086;BME280;64791;0.000;0.000;2024-01-25T10:28:54;94083.53;;;13.68;43.30
76086;BME280;64791;0.000;0.000;2024-01-25T10:31:22;94083.53;;;13.68;42.94
76086;BME280;64791;0.000;0.000;2024-01-25T10:33:48;94087.94;;;13.71;42.83
76086;BME280;64791;0.000;0.000;2024-01-25T10:36:14;94087.88;;;13.78;42.67
76086;BME280;64791;0.000;0.000;2024-01-25T10:38:41;94084.16;;;13.83;42.53
76086;BME280;64791;0.000;0.000;2024-01-25T10:41:10;94081.41;;;13.83;42.60
76086;BME280;64791;0.000;0.000;2024-01-25T10:43:36;94080.78;;;13.92;42.44
76086;BME280;64791;0.000;0.000;2024-01-25T10:46:02;94080.44;;;14.13;41.91
76086;BME280;64791;0.000;0.000;2024-01-25T10:48:28;94085.00;;;14.43;41.89
76086;BME280;64791;0.000;0.000;2024-01-25T10:50:56;94094.78;;;14.68;41.84
76086;BME280;64791;0.000;0.000;2024-01-25T10:53:24;94093.88;;;14.83;41.46
76086;BME280;64791;0.000;0.000;2024-01-25T10:55:51;94073.06;;;14.91;41.12
76086;BME280;64791;0.000;0.000;2024-01-25T10:58:17;94068.97;;;14.92;41.37
76086;BME280;64791;0.000;0.000;2024-01-25T11:00:52;94073.41;;;14.95;40.84
76086;BME280;64791;0.000;0.000;2024-01-25T11:03:25;94068.16;;;14.99;41.03
76086;BME280;64791;0.000;0.000;2024-01-25T11:05:51;94070.69;;;15.05;40.38
76086;BME280;64791;0.000;0.000;2024-01-25T11:08:18;94064.78;;;15.18;40.12
76086;BME280;64791;0.000;0.000;2024-01-25T11:10:46;94077.19;;;15.51;39.91
76086;BME280;64791;0.000;0.000;2024-01-25T11:13:13;94066.22;;;15.80;39.77
76086;BME280;64791;0.000;0.000;2024-01-25T11:15:39;94054.03;;;16.12;39.95
76086;BME280;64791;0.000;0.000;2024-01-25T11:18:07;94044.84;;;16.19;39.42
76086;BME280;64791;0.000;0.000;2024-01-25T11:20:34;94025.66;;;16.13;39.36
76086;BME280;64791;0.000;0.000;2024-01-25T11:23:04;94031.47;;;16.08;39.22
76086;BME280;64791;0.000;0.000;2024-01-25T11:25:30;94019.47;;;16.05;39.20
76086;BME280;64791;0.000;0.000;2024-01-25T11:27:57;94013.59;;;16.01;39.12
76086;BME280;64791;0.000;0.000;2024-01-25T11:30:23;94007.41;;;15.93;39.69
76086;BME280;64791;0.000;0.000;2024-01-25T11:32:49;94004.63;;;15.93;39.19
76086;BME280;64791;0.000;0.000;2024-01-25T11:35:15;94002.69;;;15.86;39.34
76086;BME280;64791;0.000;0.000;2024-01-25T11:37:44;94022.25;;;15.69;39.28
76086;BME280;64791;0.000;0.000;2024-01-25T11:40:10;94013.56;;;15.55;39.42
76086;BME280;64791;0.000;0.000;2024-01-25T11:42:36;94021.50;;;15.42;39.63
76086;BME280;64791;0.000;0.000;2024-01-25T11:45:03;94012.22;;;15.30;39.65
76086;BME280;64791;0.000;0.000;2024-01-25T11:47:29;94019.59;;;15.18;39.93
76086;BME280;64791;0.000;0.000;2024-01-25T11:49:55;94036.06;;;15.06;39.90
76086;BME280;64791;0.000;0.000;2024-01-25T11:52:20;94032.56;;;14.88;39.96
76086;BME280;64791;0.000;0.000;2024-01-25T11:54:46;94020.88;;;14.73;40.42
76086;BME280;64791;0.000;0.000;2024-01-25T11:57:12;94036.78;;;14.55;40.78
76086;BME280;64791;0.000;0.000;2024-01-25T11:59:38;94043.44;;;14.35;40.83
76086;BME280;64791;0.000;0.000;2024-01-25T12:02:04;94028.81;;;14.17;41.29
76086;BME280;64791;0.000;0.000;2024-01-25T12:04:30;94010.25;;;14.03;41.23
76086;BME280;64791;0.000;0.000;2024-01-25T12:06:55;94014.41;;;13.94;41.34
76086;BME280;64791;0.000;0.000;2024-01-25T12:09:22;94020.72;;;13.87;41.52
76086;BME280;64791;0.000;0.000;2024-01-25T12:11:49;94024.13;;;13.78;41.59
76086;BME280;64791;0.000;0.000;2024-01-25T12:14:16;94018.81;;;13.73;41.77
76086;BME280;64791;0.000;0.000;2024-01-25T12:16:42;94031.75;;;13.70;41.70
76086;BME280;64791;0.000;0.000;2024-01-25T12:19:07;94034.94;;;13.67;41.60
76086;BME280;64791;0.000;0.000;2024-01-25T12:21:33;94019.25;;;13.62;41.70
76086;BME280;64791;0.000;0.000;2024-01-25T12:23:59;94010.78;;;13.59;41.85
76086;BME280;64791;0.000;0.000;2024-01-25T12:26:25;94014.28;;;13.60;41.72
76086;BME280;64791;0.000;0.000;2024-01-25T12:28:51;94013.56;;;13.59;41.92
76086;BME280;64791;0.000;0.000;2024-01-25T12:31:17;94013.31;;;13.65;41.67
76086;BME280;64791;0.000;0.000;2024-01-25T12:33:43;94001.94;;;13.78;41.67
76086;BME280;64791;0.000;0.000;2024-01-25T12:36:09;94004.19;;;13.97;41.06
76086;BME280;64791;0.000;0.000;2024-01-25T12:38:34;94008.00;;;14.26;40.89
76086;BME280;64791;0.000;0.000;2024-01-25T12:41:00;94002.56;;;14.53;41.50
76086;BME280;64791;0.000;0.000;2024-01-25T12:43:26;93991.47;;;14.70;41.23
76086;BME280;64791;0.000;0.000;2024-01-25T12:45:52;93987.56;;;14.73;41.38
76086;BME280;64791;0.000;0.000;2024-01-25T12:48:18;93982.16;;;14.75;41.53
76086;BME280;64791;0.000;0.000;2024-01-25T12:50:44;93974.81;;;14.87;41.27
76086;BME280;64791;0.000;0.000;2024-01-25T12:53:10;93950.03;;;14.98;41.19
76086;BME280;64791;0.000;0.000;2024-01-25T12:55:35;93935.25;;;15.23;40.68
76086;BME280;64791;0.000;0.000;2024-01-25T12:58:01;93928.19;;;15.48;40.62
76086;BME280;64791;0.000;0.000;2024-01-25T13:00:28;93935.06;;;15.47;40.65
76086;BME280;64791;0.000;0.000;2024-01-25T13:02:53;93919.44;;;15.52;40.67
76086;BME280;64791;0.000;0.000;2024-01-25T13:05:20;93907.63;;;15.61;39.66
76086;BME280;64791;0.000;0.000;2024-01-25T13:07:45;93923.19;;;15.73;39.36
76086;BME280;64791;0.000;0.000;2024-01-25T13:10:11;93922.31;;;15.80;39.13
76086;BME280;64791;0.000;0.000;2024-01-25T13:12:37;93926.41;;;15.79;40.17